sensor_id;sensor_type;location;lat;lon;timestamp;temperature;humidity
71084;DHT22;58741;52.672;13.548;2022-07-31T00:00:07;15.60;70.30
71084;DHT22;58741;52.672;13.548;2022-07-31T00:02:34;15.60;70.40
71084;DHT22;58741;52.672;13.548;2022-07-31T00:05:00;15.50;70.50
71084;DHT22;58741;52.672;13.548;2022-07-31T00:07:26;15.50;70.70
71084;DHT22;58741;52.672;13.548;2022-07-31T00:09:51;15.50;70.00
71084;DHT22;58741;52.672;13.548;2022-07-31T00:12:17;15.40;70.90
71084;DHT22;58741;52.672;13.548;2022-07-31T00:14:43;15.40;70.60
71084;DHT22;58741;52.672;13.548;2022-07-31T00:17:08;15.40;70.70
71084;DHT22;58741;52.672;13.548;2022-07-31T00:19:34;15.40;70.70
71084;DHT22;58741;52.672;13.548;2022-07-31T00:21:59;15.30;71.30
71084;DHT22;58741;52.672;13.548;2022-07-31T00:24:25;15.30;71.90
71084;DHT22;58741;52.672;13.548;2022-07-31T00:26:51;15.30;71.40
71084;DHT22;58741;52.672;13.548;2022-07-31T00:29:17;15.30;71.00
71084;DHT22;58741;52.672;13.548;2022-07-31T00:31:42;15.20;70.80
71084;DHT22;58741;52.672;13.548;2022-07-31T00:34:08;15.20;71.90
71084;DHT22;58741;52.672;13.548;2022-07-31T00:36:33;15.20;72.40
71084;DHT22;58741;52.672;13.548;2022-07-31T00:38:59;15.10;72.00
71084;DHT22;58741;52.672;13.548;2022-07-31T00:41:35;15.10;71.50
71084;DHT22;58741;52.672;13.548;2022-07-31T00:44:00;15.10;71.30
71084;DHT22;58741;52.672;13.548;2022-07-31T00:46:26;15.10;71.90
71084;DHT22;58741;52.672;13.548;2022-07-31T00:48:51;15.00;72.20
71084;DHT22;58741;52.672;13.548;2022-07-31T00:51:17;15.00;72.30
71084;DHT22;58741;52.672;13.548;2022-07-31T00:53:42;15.00;72.00
71084;DHT22;58741;52.672;13.548;2022-07-31T00:56:08;14.90;73.30
71084;DHT22;58741;52.672;13.548;2022-07-31T00:58:33;15.00;72.60
71084;DHT22;58741;52.672;13.548;2022-07-31T01:00:59;14.90;73.10
71084;DHT22;58741;52.672;13.548;2022-07-31T01:03:24;14.90;73.20
71084;DHT22;58741;52.672;13.548;2022-07-31T01:05:50;14.80;72.80
71084;DHT22;58741;52.672;13.548;2022-07-31T01:08:15;14.90;72.90
71084;DHT22;58741;52.672;13.548;2022-07-31T01:10:56;14.80;72.40
71084;DHT22;58741;52.672;13.548;2022-07-31T01:13:34;14.80;72.20
71084;DHT22;58741;52.672;13.548;2022-07-31T01:16:03;14.70;72.40
71084;DHT22;58741;52.672;13.548;2022-07-31T01:18:34;14.70;72.40
71084;DHT22;58741;52.672;13.548;2022-07-31T01:21:03;14.70;72.30
71084;DHT22;58741;52.672;13.548;2022-07-31T01:26:56;14.60;72.20
71084;DHT22;58741;52.672;13.548;2022-07-31T01:29:34;14.60;73.00
71084;DHT22;58741;52.672;13.548;2022-07-31T01:32:07;14.60;73.30
71084;DHT22;58741;52.672;13.548;2022-07-31T01:34:45;14.50;73.10
71084;DHT22;58741;52.672;13.548;2022-07-31T01:40:43;14.50;73.30
71084;DHT22;58741;52.672;13.548;2022-07-31T01:43:20;14.40;73.70
71084;DHT22;58741;52.672;13.548;2022-07-31T01:45:50;14.40;73.30
71084;DHT22;58741;52.672;13.548;2022-07-31T01:48:16;14.40;73.30
71084;DHT22;58741;52.672;13.548;2022-07-31T01:50:51;14.40;73.90
71084;DHT22;58741;52.672;13.548;2022-07-31T01:53:23;14.40;73.40
71084;DHT22;58741;52.672;13.548;2022-07-31T01:55:52;14.30;74.50
71084;DHT22;58741;52.672;13.548;2022-07-31T01:58:20;14.30;74.30
71084;DHT22;58741;52.672;13.548;2022-07-31T02:00:47;14.30;74.00
71084;DHT22;58741;52.672;13.548;2022-07-31T02:03:13;14.30;74.40
71084;DHT22;58741;52.672;13.548;2022-07-31T02:05:40;14.20;74.80
71084;DHT22;58741;52.672;13.548;2022-07-31T02:08:08;14.20;75.00
71084;DHT22;58741;52.672;13.548;2022-07-31T02:10:35;14.20;74.90
71084;DHT22;58741;52.672;13.548;2022-07-31T02:13:02;14.10;74.70
71084;DHT22;58741;52.672;13.548;2022-07-31T02:15:30;14.20;75.10
71084;DHT22;58741;52.672;13.548;2022-07-31T02:17:56;14.10;74.50
71084;DHT22;58741;52.672;13.548;2022-07-31T02:20:22;14.10;74.70
71084;DHT22;58741;52.672;13.548;2022-07-31T02:22:48;14.10;74.80
71084;DHT22;58741;52.672;13.548;2022-07-31T02:25:14;14.10;74.60
71084;DHT22;58741;52.672;13.548;2022-07-31T02:27:41;14.10;74.30
71084;DHT22;58741;52.672;13.548;2022-07-31T02:30:08;14.00;74.20
71084;DHT22;58741;52.672;13.548;2022-07-31T02:32:34;14.00;74.30
71084;DHT22;58741;52.672;13.548;2022-07-31T02:35:02;14.00;74.50
71084;DHT22;58741;52.672;13.548;2022-07-31T02:37:28;13.90;74.40
71084;DHT22;58741;52.672;13.548;2022-07-31T02:39:56;14.00;74.50
71084;DHT22;58741;52.672;13.548;2022-07-31T02:42:22;13.90;74.50
71084;DHT22;58741;52.672;13.548;2022-07-31T02:44:48;13.90;74.30
71084;DHT22;58741;52.672;13.548;2022-07-31T02:47:14;13.90;74.60
71084;DHT22;58741;52.672;13.548;2022-07-31T02:49:40;13.90;75.80
71084;DHT22;58741;52.672;13.548;2022-07-31T02:52:07;13.90;75.30
71084;DHT22;58741;52.672;13.548;2022-07-31T02:54:35;13.80;76.30
71084;DHT22;58741;52.672;13.548;2022-07-31T02:57:03;13.80;75.90
71084;DHT22;58741;52.672;13.548;2022-07-31T02:59:29;13.80;75.90
71084;DHT22;58741;52.672;13.548;2022-07-31T03:01:54;13.80;76.20
71084;DHT22;58741;52.672;13.548;2022-07-31T03:04:20;13.80;76.50
71084;DHT22;58741;52.672;13.548;2022-07-31T03:06:46;13.80;76.50
71084;DHT22;58741;52.672;13.548;2022-07-31T03:09:13;13.70;76.80
71084;DHT22;58741;52.672;13.548;2022-07-31T03:11:39;13.70;77.00
71084;DHT22;58741;52.672;13.548;2022-07-31T03:14:06;13.70;77.50
71084;DHT22;58741;52.672;13.548;2022-07-31T03:16:33;13.70;77.60
71084;DHT22;58741;52.672;13.548;2022-07-31T03:19:00;13.70;77.60
71084;DHT22;58741;52.672;13.548;2022-07-31T03:21:26;13.70;77.30
71084;DHT22;58741;52.672;13.548;2022-07-31T03:23:52;13.60;77.30
71084;DHT22;58741;52.672;13.548;2022-07-31T03:26:18;13.60;77.20
71084;DHT22;58741;52.672;13.548;2022-07-31T03:28:44;13.60;77.20
71084;DHT22;58741;52.672;13.548;2022-07-31T03:31:09;13.60;78.00
71084;DHT22;58741;52.672;13.548;2022-07-31T03:33:35;13.50;77.90
71084;DHT22;58741;52.672;13.548;2022-07-31T03:36:01;13.50;77.70
71084;DHT22;58741;52.672;13.548;2022-07-31T03:38:26;13.50;77.90
71084;DHT22;58741;52.672;13.548;2022-07-31T03:40:52;13.50;77.70
71084;DHT22;58741;52.672;13.548;2022-07-31T03:43:18;13.50;77.70
71084;DHT22;58741;52.672;13.548;2022-07-31T03:45:45;13.50;78.40
71084;DHT22;58741;52.672;13.548;2022-07-31T03:48:11;13.50;78.00
71084;DHT22;58741;52.672;13.548;2022-07-31T03:50:37;13.50;77.70
71084;DHT22;58741;52.672;13.548;2022-07-31T03:53:07;13.50;77.50
71084;DHT22;58741;52.672;13.548;2022-07-31T03:55:35;13.50;77.50
71084;DHT22;58741;52.672;13.548;2022-07-31T03:58:02;13.50;77.30
71084;DHT22;58741;52.672;13.548;2022-07-31T04:00:28;13.50;77.30
71084;DHT22;58741;52.672;13.548;2022-07-31T04:02:55;13.50;77.20
71084;DHT22;58741;52.672;13.548;2022-07-31T04:05:22;13.50;77.10
71084;DHT22;58741;52.672;13.548;2022-07-31T04:07:48;13.50;76.40
71084;DHT22;58741;52.672;13.548;2022-07-31T04:10:13;13.50;76.60
71084;DHT22;58741;52.672;13.548;2022-07-31T04:12:39;13.50;77.20
71084;DHT22;58741;52.672;13.548;2022-07-31T04:15:05;13.50;77.00
71084;DHT22;58741;52.672;13.548;2022-07-31T04:17:31;13.50;77.40
71084;DHT22;58741;52.672;13.548;2022-07-31T04:19:56;13.50;76.30
71084;DHT22;58741;52.672;13.548;2022-07-31T04:22:22;13.50;77.60
71084;DHT22;58741;52.672;13.548;2022-07-31T04:24:47;13.50;76.70
71084;DHT22;58741;52.672;13.548;2022-07-31T04:27:15;13.50;76.80
71084;DHT22;58741;52.672;13.548;2022-07-31T04:29:42;13.50;76.40
71084;DHT22;58741;52.672;13.548;2022-07-31T04:32:07;13.60;76.50
71084;DHT22;58741;52.672;13.548;2022-07-31T04:34:33;13.60;76.00
71084;DHT22;58741;52.672;13.548;2022-07-31T04:36:58;13.60;76.50
71084;DHT22;58741;52.672;13.548;2022-07-31T04:39:24;13.60;77.90
71084;DHT22;58741;52.672;13.548;2022-07-31T04:41:49;13.70;77.60
71084;DHT22;58741;52.672;13.548;2022-07-31T04:44:15;13.70;77.80
71084;DHT22;58741;52.672;13.548;2022-07-31T04:46:40;13.70;79.00
71084;DHT22;58741;52.672;13.548;2022-07-31T04:49:08;13.80;78.80
71084;DHT22;58741;52.672;13.548;2022-07-31T04:51:35;13.80;81.60
71084;DHT22;58741;52.672;13.548;2022-07-31T04:54:01;13.90;80.50
71084;DHT22;58741;52.672;13.548;2022-07-31T04:56:26;14.00;79.80
71084;DHT22;58741;52.672;13.548;2022-07-31T04:58:59;14.00;79.50
71084;DHT22;58741;52.672;13.548;2022-07-31T05:01:24;14.10;80.60
71084;DHT22;58741;52.672;13.548;2022-07-31T05:03:50;14.20;80.90
71084;DHT22;58741;52.672;13.548;2022-07-31T05:06:15;14.20;80.30
71084;DHT22;58741;52.672;13.548;2022-07-31T05:08:41;14.30;80.00
71084;DHT22;58741;52.672;13.548;2022-07-31T05:11:07;14.40;80.40
71084;DHT22;58741;52.672;13.548;2022-07-31T05:13:52;14.40;78.80
71084;DHT22;58741;52.672;13.548;2022-07-31T05:16:19;14.50;79.60
71084;DHT22;58741;52.672;13.548;2022-07-31T05:18:45;14.60;79.80
71084;DHT22;58741;52.672;13.548;2022-07-31T05:21:12;14.70;79.70
71084;DHT22;58741;52.672;13.548;2022-07-31T05:23:39;14.80;78.90
71084;DHT22;58741;52.672;13.548;2022-07-31T05:26:05;14.80;78.80
71084;DHT22;58741;52.672;13.548;2022-07-31T05:28:30;14.90;79.60
71084;DHT22;58741;52.672;13.548;2022-07-31T05:30:56;15.10;78.70
71084;DHT22;58741;52.672;13.548;2022-07-31T05:33:22;15.20;78.50
71084;DHT22;58741;52.672;13.548;2022-07-31T05:35:47;15.40;78.20
71084;DHT22;58741;52.672;13.548;2022-07-31T05:38:13;15.50;79.00
71084;DHT22;58741;52.672;13.548;2022-07-31T05:40:38;15.70;77.80
71084;DHT22;58741;52.672;13.548;2022-07-31T05:43:03;15.90;76.30
71084;DHT22;58741;52.672;13.548;2022-07-31T05:45:29;16.10;74.40
71084;DHT22;58741;52.672;13.548;2022-07-31T05:47:54;16.20;74.50
71084;DHT22;58741;52.672;13.548;2022-07-31T05:50:20;16.40;75.10
71084;DHT22;58741;52.672;13.548;2022-07-31T05:52:46;16.60;74.70
71084;DHT22;58741;52.672;13.548;2022-07-31T05:55:13;16.70;75.10
71084;DHT22;58741;52.672;13.548;2022-07-31T05:57:39;16.90;71.90
71084;DHT22;58741;52.672;13.548;2022-07-31T06:00:05;17.10;72.10
71084;DHT22;58741;52.672;13.548;2022-07-31T06:02:31;17.30;70.40
71084;DHT22;58741;52.672;13.548;2022-07-31T06:04:56;17.50;69.50
71084;DHT22;58741;52.672;13.548;2022-07-31T06:07:22;17.70;69.00
71084;DHT22;58741;52.672;13.548;2022-07-31T06:09:47;17.90;68.30
71084;DHT22;58741;52.672;13.548;2022-07-31T06:12:13;18.10;67.40
71084;DHT22;58741;52.672;13.548;2022-07-31T06:14:38;18.20;68.20
71084;DHT22;58741;52.672;13.548;2022-07-31T06:17:05;18.40;66.00
71084;DHT22;58741;52.672;13.548;2022-07-31T06:19:32;18.60;66.40
71084;DHT22;58741;52.672;13.548;2022-07-31T06:21:57;18.80;67.20
71084;DHT22;58741;52.672;13.548;2022-07-31T06:24:23;19.00;65.60
71084;DHT22;58741;52.672;13.548;2022-07-31T06:26:50;19.20;64.80
71084;DHT22;58741;52.672;13.548;2022-07-31T06:29:16;19.40;65.70
71084;DHT22;58741;52.672;13.548;2022-07-31T06:31:41;19.60;61.10
71084;DHT22;58741;52.672;13.548;2022-07-31T06:34:07;19.80;63.70
71084;DHT22;58741;52.672;13.548;2022-07-31T06:36:32;19.90;63.30
71084;DHT22;58741;52.672;13.548;2022-07-31T06:38:58;20.20;63.80
71084;DHT22;58741;52.672;13.548;2022-07-31T06:41:23;20.30;61.60
71084;DHT22;58741;52.672;13.548;2022-07-31T06:44:13;20.50;61.30
71084;DHT22;58741;52.672;13.548;2022-07-31T06:46:38;20.70;61.00
71084;DHT22;58741;52.672;13.548;2022-07-31T06:49:04;21.00;58.70
71084;DHT22;58741;52.672;13.548;2022-07-31T06:51:30;21.20;57.20
71084;DHT22;58741;52.672;13.548;2022-07-31T06:53:56;21.30;57.30
71084;DHT22;58741;52.672;13.548;2022-07-31T06:56:21;21.50;58.70
71084;DHT22;58741;52.672;13.548;2022-07-31T06:58:47;21.70;58.20
71084;DHT22;58741;52.672;13.548;2022-07-31T07:01:13;21.80;57.40
71084;DHT22;58741;52.672;13.548;2022-07-31T07:03:38;22.00;57.60
71084;DHT22;58741;52.672;13.548;2022-07-31T07:06:04;22.20;56.40
71084;DHT22;58741;52.672;13.548;2022-07-31T07:08:29;22.40;56.40
71084;DHT22;58741;52.672;13.548;2022-07-31T07:10:55;22.50;56.20
71084;DHT22;58741;52.672;13.548;2022-07-31T07:13:21;22.70;56.90
71084;DHT22;58741;52.672;13.548;2022-07-31T07:15:46;22.80;52.00
71084;DHT22;58741;52.672;13.548;2022-07-31T07:18:12;23.00;53.80
71084;DHT22;58741;52.672;13.548;2022-07-31T07:20:38;23.10;52.40
71084;DHT22;58741;52.672;13.548;2022-07-31T07:23:03;23.20;51.20
71084;DHT22;58741;52.672;13.548;2022-07-31T07:25:29;23.30;51.10
71084;DHT22;58741;52.672;13.548;2022-07-31T07:27:54;23.40;51.60
71084;DHT22;58741;52.672;13.548;2022-07-31T07:30:21;23.60;52.80
71084;DHT22;58741;52.672;13.548;2022-07-31T07:32:47;23.70;50.20
71084;DHT22;58741;52.672;13.548;2022-07-31T07:35:13;23.90;51.70
71084;DHT22;58741;52.672;13.548;2022-07-31T07:37:39;24.00;52.50
71084;DHT22;58741;52.672;13.548;2022-07-31T07:40:06;24.20;52.30
71084;DHT22;58741;52.672;13.548;2022-07-31T07:42:32;24.30;51.70
71084;DHT22;58741;52.672;13.548;2022-07-31T07:44:57;24.50;51.10
71084;DHT22;58741;52.672;13.548;2022-07-31T07:47:23;24.60;53.10
71084;DHT22;58741;52.672;13.548;2022-07-31T07:49:49;24.70;52.50
71084;DHT22;58741;52.672;13.548;2022-07-31T07:52:14;24.90;53.00
71084;DHT22;58741;52.672;13.548;2022-07-31T07:54:40;25.00;51.00
71084;DHT22;58741;52.672;13.548;2022-07-31T07:57:08;25.10;51.20
71084;DHT22;58741;52.672;13.548;2022-07-31T07:59:33;25.20;49.20
71084;DHT22;58741;52.672;13.548;2022-07-31T08:01:59;25.30;52.60
71084;DHT22;58741;52.672;13.548;2022-07-31T08:04:24;25.50;51.60
71084;DHT22;58741;52.672;13.548;2022-07-31T08:06:50;25.50;51.80
71084;DHT22;58741;52.672;13.548;2022-07-31T08:09:15;25.70;51.00
71084;DHT22;58741;52.672;13.548;2022-07-31T08:11:41;25.80;51.20
71084;DHT22;58741;52.672;13.548;2022-07-31T08:14:07;25.90;49.80
71084;DHT22;58741;52.672;13.548;2022-07-31T08:16:32;26.00;47.30
71084;DHT22;58741;52.672;13.548;2022-07-31T08:18:58;26.00;50.00
71084;DHT22;58741;52.672;13.548;2022-07-31T08:21:23;26.10;50.70
71084;DHT22;58741;52.672;13.548;2022-07-31T08:23:49;26.20;49.10
71084;DHT22;58741;52.672;13.548;2022-07-31T08:26:14;26.30;49.00
71084;DHT22;58741;52.672;13.548;2022-07-31T08:28:42;26.50;49.80
71084;DHT22;58741;52.672;13.548;2022-07-31T08:31:07;26.60;48.30
71084;DHT22;58741;52.672;13.548;2022-07-31T08:33:33;26.60;49.00
71084;DHT22;58741;52.672;13.548;2022-07-31T08:35:58;26.70;48.20
71084;DHT22;58741;52.672;13.548;2022-07-31T08:38:25;26.80;48.50
71084;DHT22;58741;52.672;13.548;2022-07-31T08:40:51;26.90;48.20
71084;DHT22;58741;52.672;13.548;2022-07-31T08:43:16;26.90;47.20
71084;DHT22;58741;52.672;13.548;2022-07-31T08:45:42;27.00;48.40
71084;DHT22;58741;52.672;13.548;2022-07-31T08:48:08;27.10;48.20
71084;DHT22;58741;52.672;13.548;2022-07-31T08:50:37;27.20;49.00
71084;DHT22;58741;52.672;13.548;2022-07-31T08:53:05;27.20;48.30
71084;DHT22;58741;52.672;13.548;2022-07-31T08:55:32;27.30;47.40
71084;DHT22;58741;52.672;13.548;2022-07-31T08:57:58;27.40;47.10
71084;DHT22;58741;52.672;13.548;2022-07-31T09:00:24;27.50;47.40
71084;DHT22;58741;52.672;13.548;2022-07-31T09:02:49;27.60;46.20
71084;DHT22;58741;52.672;13.548;2022-07-31T09:05:17;27.60;44.90
71084;DHT22;58741;52.672;13.548;2022-07-31T09:07:44;27.60;44.00
71084;DHT22;58741;52.672;13.548;2022-07-31T09:10:28;27.70;45.80
71084;DHT22;58741;52.672;13.548;2022-07-31T09:12:54;27.80;46.10
71084;DHT22;58741;52.672;13.548;2022-07-31T09:15:25;27.80;46.40
71084;DHT22;58741;52.672;13.548;2022-07-31T09:17:52;27.90;45.40
71084;DHT22;58741;52.672;13.548;2022-07-31T09:20:23;27.90;45.60
71084;DHT22;58741;52.672;13.548;2022-07-31T09:23:08;28.00;45.50
71084;DHT22;58741;52.672;13.548;2022-07-31T09:25:34;28.00;47.20
71084;DHT22;58741;52.672;13.548;2022-07-31T09:28:04;28.10;46.80
71084;DHT22;58741;52.672;13.548;2022-07-31T09:30:30;28.20;46.50
71084;DHT22;58741;52.672;13.548;2022-07-31T09:33:17;28.20;43.70
71084;DHT22;58741;52.672;13.548;2022-07-31T09:35:47;28.20;46.00
71084;DHT22;58741;52.672;13.548;2022-07-31T09:38:13;28.30;45.70
71084;DHT22;58741;52.672;13.548;2022-07-31T09:40:40;28.40;46.20
71084;DHT22;58741;52.672;13.548;2022-07-31T09:43:18;28.50;45.10
71084;DHT22;58741;52.672;13.548;2022-07-31T09:45:56;28.70;45.00
71084;DHT22;58741;52.672;13.548;2022-07-31T09:48:23;28.80;44.80
71084;DHT22;58741;52.672;13.548;2022-07-31T09:50:58;28.80;46.10
71084;DHT22;58741;52.672;13.548;2022-07-31T09:53:24;28.90;46.20
71084;DHT22;58741;52.672;13.548;2022-07-31T09:55:52;29.00;46.10
71084;DHT22;58741;52.672;13.548;2022-07-31T09:58:18;29.10;45.10
71084;DHT22;58741;52.672;13.548;2022-07-31T10:00:46;29.20;45.80
71084;DHT22;58741;52.672;13.548;2022-07-31T10:03:13;29.30;45.50
71084;DHT22;58741;52.672;13.548;2022-07-31T10:05:40;29.30;44.80
71084;DHT22;58741;52.672;13.548;2022-07-31T10:08:06;29.40;43.20
71084;DHT22;58741;52.672;13.548;2022-07-31T10:10:32;29.50;45.30
71084;DHT22;58741;52.672;13.548;2022-07-31T10:13:02;29.50;44.80
71084;DHT22;58741;52.672;13.548;2022-07-31T10:15:28;29.50;43.40
71084;DHT22;58741;52.672;13.548;2022-07-31T10:17:56;29.60;43.10
71084;DHT22;58741;52.672;13.548;2022-07-31T10:20:23;29.60;43.70
71084;DHT22;58741;52.672;13.548;2022-07-31T10:22:53;29.60;44.40
71084;DHT22;58741;52.672;13.548;2022-07-31T10:25:23;29.70;43.20
71084;DHT22;58741;52.672;13.548;2022-07-31T10:27:50;29.60;43.30
71084;DHT22;58741;52.672;13.548;2022-07-31T10:30:17;29.70;43.80
71084;DHT22;58741;52.672;13.548;2022-07-31T10:32:43;29.70;43.40
71084;DHT22;58741;52.672;13.548;2022-07-31T10:35:09;29.80;44.70
71084;DHT22;58741;52.672;13.548;2022-07-31T10:40:51;30.00;44.00
71084;DHT22;58741;52.672;13.548;2022-07-31T10:43:35;30.20;43.90
71084;DHT22;58741;52.672;13.548;2022-07-31T10:46:03;30.30;43.50
71084;DHT22;58741;52.672;13.548;2022-07-31T10:48:29;30.30;44.10
71084;DHT22;58741;52.672;13.548;2022-07-31T10:51:06;30.50;42.60
71084;DHT22;58741;52.672;13.548;2022-07-31T10:53:33;30.50;42.70
71084;DHT22;58741;52.672;13.548;2022-07-31T10:56:06;30.60;42.70
71084;DHT22;58741;52.672;13.548;2022-07-31T10:58:54;30.60;41.80
71084;DHT22;58741;52.672;13.548;2022-07-31T11:01:20;30.50;41.40
71084;DHT22;58741;52.672;13.548;2022-07-31T11:03:51;30.40;42.00
71084;DHT22;58741;52.672;13.548;2022-07-31T11:06:17;30.30;41.60
71084;DHT22;58741;52.672;13.548;2022-07-31T11:08:48;30.10;41.00
71084;DHT22;58741;52.672;13.548;2022-07-31T11:11:14;30.00;41.00
71084;DHT22;58741;52.672;13.548;2022-07-31T11:13:50;29.90;42.20
71084;DHT22;58741;52.672;13.548;2022-07-31T11:16:18;29.90;42.40
71084;DHT22;58741;52.672;13.548;2022-07-31T11:18:44;29.80;41.30
71084;DHT22;58741;52.672;13.548;2022-07-31T11:21:33;29.80;41.50
71084;DHT22;58741;52.672;13.548;2022-07-31T11:24:00;29.80;42.50
71084;DHT22;58741;52.672;13.548;2022-07-31T11:26:25;29.90;41.30
71084;DHT22;58741;52.672;13.548;2022-07-31T11:28:51;29.90;39.60
71084;DHT22;58741;52.672;13.548;2022-07-31T11:31:17;29.80;40.70
71084;DHT22;58741;52.672;13.548;2022-07-31T11:33:46;29.70;39.70
71084;DHT22;58741;52.672;13.548;2022-07-31T11:36:13;29.60;41.00
71084;DHT22;58741;52.672;13.548;2022-07-31T11:38:44;29.50;40.90
71084;DHT22;58741;52.672;13.548;2022-07-31T11:41:10;29.40;43.40
71084;DHT22;58741;52.672;13.548;2022-07-31T11:43:36;29.50;42.20
71084;DHT22;58741;52.672;13.548;2022-07-31T11:46:03;29.50;42.00
71084;DHT22;58741;52.672;13.548;2022-07-31T11:48:30;29.50;42.40
71084;DHT22;58741;52.672;13.548;2022-07-31T11:50:57;29.50;42.60
71084;DHT22;58741;52.672;13.548;2022-07-31T11:53:23;29.60;41.90
71084;DHT22;58741;52.672;13.548;2022-07-31T11:55:59;29.60;41.70
71084;DHT22;58741;52.672;13.548;2022-07-31T11:58:26;29.70;43.40
71084;DHT22;58741;52.672;13.548;2022-07-31T12:03:22;29.80;42.40
71084;DHT22;58741;52.672;13.548;2022-07-31T12:05:49;30.00;41.20
71084;DHT22;58741;52.672;13.548;2022-07-31T12:08:16;29.90;41.30
71084;DHT22;58741;52.672;13.548;2022-07-31T12:10:42;30.00;40.30
71084;DHT22;58741;52.672;13.548;2022-07-31T12:13:19;30.00;42.50
71084;DHT22;58741;52.672;13.548;2022-07-31T12:15:55;30.00;43.10
71084;DHT22;58741;52.672;13.548;2022-07-31T12:18:21;30.10;43.40
71084;DHT22;58741;52.672;13.548;2022-07-31T12:21:01;30.20;42.70
71084;DHT22;58741;52.672;13.548;2022-07-31T12:23:42;30.20;42.20
71084;DHT22;58741;52.672;13.548;2022-07-31T12:26:10;30.30;41.20
71084;DHT22;58741;52.672;13.548;2022-07-31T12:28:37;30.40;42.90
71084;DHT22;58741;52.672;13.548;2022-07-31T12:31:02;30.50;41.40
71084;DHT22;58741;52.672;13.548;2022-07-31T12:33:39;30.60;40.40
71084;DHT22;58741;52.672;13.548;2022-07-31T12:36:14;30.60;40.40
71084;DHT22;58741;52.672;13.548;2022-07-31T12:38:41;30.60;40.50
71084;DHT22;58741;52.672;13.548;2022-07-31T12:41:07;30.60;39.80
71084;DHT22;58741;52.672;13.548;2022-07-31T12:43:32;30.60;40.60
71084;DHT22;58741;52.672;13.548;2022-07-31T12:45:58;30.60;41.00
71084;DHT22;58741;52.672;13.548;2022-07-31T12:48:31;30.60;41.20
71084;DHT22;58741;52.672;13.548;2022-07-31T12:50:58;30.50;40.90
71084;DHT22;58741;52.672;13.548;2022-07-31T12:53:23;30.40;40.40
71084;DHT22;58741;52.672;13.548;2022-07-31T12:55:49;30.30;40.00
71084;DHT22;58741;52.672;13.548;2022-07-31T12:58:14;30.20;40.30
71084;DHT22;58741;52.672;13.548;2022-07-31T13:00:40;30.10;40.30
71084;DHT22;58741;52.672;13.548;2022-07-31T13:03:05;30.10;40.10
71084;DHT22;58741;52.672;13.548;2022-07-31T13:05:30;30.20;41.00
71084;DHT22;58741;52.672;13.548;2022-07-31T13:07:56;30.10;41.00
71084;DHT22;58741;52.672;13.548;2022-07-31T13:10:22;30.10;41.80
71084;DHT22;58741;52.672;13.548;2022-07-31T13:12:49;30.10;42.10
71084;DHT22;58741;52.672;13.548;2022-07-31T13:15:18;30.00;41.80
71084;DHT22;58741;52.672;13.548;2022-07-31T13:17:44;30.10;41.90
71084;DHT22;58741;52.672;13.548;2022-07-31T13:20:10;30.10;41.30
71084;DHT22;58741;52.672;13.548;2022-07-31T13:22:36;30.10;41.40
71084;DHT22;58741;52.672;13.548;2022-07-31T13:25:02;30.00;42.10
71084;DHT22;58741;52.672;13.548;2022-07-31T13:27:29;30.00;41.30
71084;DHT22;58741;52.672;13.548;2022-07-31T13:29:55;29.90;42.30
71084;DHT22;58741;52.672;13.548;2022-07-31T13:32:20;29.90;42.30
71084;DHT22;58741;52.672;13.548;2022-07-31T13:34:46;29.90;42.10
71084;DHT22;58741;52.672;13.548;2022-07-31T13:37:11;29.80;41.50
71084;DHT22;58741;52.672;13.548;2022-07-31T13:39:37;29.80;42.20
71084;DHT22;58741;52.672;13.548;2022-07-31T13:42:02;29.70;41.50
71084;DHT22;58741;52.672;13.548;2022-07-31T13:44:28;29.80;42.30
71084;DHT22;58741;52.672;13.548;2022-07-31T13:46:53;29.80;41.10
71084;DHT22;58741;52.672;13.548;2022-07-31T13:49:19;29.80;42.10
71084;DHT22;58741;52.672;13.548;2022-07-31T13:51:44;29.80;42.80
71084;DHT22;58741;52.672;13.548;2022-07-31T13:54:11;29.80;41.20
71084;DHT22;58741;52.672;13.548;2022-07-31T13:56:36;29.80;41.40
71084;DHT22;58741;52.672;13.548;2022-07-31T13:59:03;29.70;42.60
71084;DHT22;58741;52.672;13.548;2022-07-31T14:01:29;29.60;42.20
71084;DHT22;58741;52.672;13.548;2022-07-31T14:03:55;29.50;42.70
71084;DHT22;58741;52.672;13.548;2022-07-31T14:06:20;29.40;42.30
71084;DHT22;58741;52.672;13.548;2022-07-31T14:08:46;29.30;42.90
71084;DHT22;58741;52.672;13.548;2022-07-31T14:11:11;29.20;43.30
71084;DHT22;58741;52.672;13.548;2022-07-31T14:13:37;29.20;43.10
71084;DHT22;58741;52.672;13.548;2022-07-31T14:16:03;29.30;42.10
71084;DHT22;58741;52.672;13.548;2022-07-31T14:18:30;29.40;42.40
71084;DHT22;58741;52.672;13.548;2022-07-31T14:20:56;29.50;42.20
71084;DHT22;58741;52.672;13.548;2022-07-31T14:23:21;29.50;42.00
71084;DHT22;58741;52.672;13.548;2022-07-31T14:25:47;29.50;42.00
71084;DHT22;58741;52.672;13.548;2022-07-31T14:28:12;29.40;41.30
71084;DHT22;58741;52.672;13.548;2022-07-31T14:30:38;29.30;41.20
71084;DHT22;58741;52.672;13.548;2022-07-31T14:33:09;29.10;41.90
71084;DHT22;58741;52.672;13.548;2022-07-31T14:35:35;29.00;41.70
71084;DHT22;58741;52.672;13.548;2022-07-31T14:38:00;28.80;42.50
71084;DHT22;58741;52.672;13.548;2022-07-31T14:40:26;28.70;41.70
71084;DHT22;58741;52.672;13.548;2022-07-31T14:42:55;28.60;41.80
71084;DHT22;58741;52.672;13.548;2022-07-31T14:45:20;28.60;42.60
71084;DHT22;58741;52.672;13.548;2022-07-31T14:47:46;28.50;43.30
71084;DHT22;58741;52.672;13.548;2022-07-31T14:50:11;28.50;44.10
71084;DHT22;58741;52.672;13.548;2022-07-31T14:52:37;28.60;44.10
71084;DHT22;58741;52.672;13.548;2022-07-31T14:55:02;28.70;44.70
71084;DHT22;58741;52.672;13.548;2022-07-31T14:57:28;28.80;42.10
71084;DHT22;58741;52.672;13.548;2022-07-31T14:59:57;28.90;43.10
71084;DHT22;58741;52.672;13.548;2022-07-31T15:02:23;28.90;41.70
71084;DHT22;58741;52.672;13.548;2022-07-31T15:04:50;28.80;42.30
71084;DHT22;58741;52.672;13.548;2022-07-31T15:07:16;28.70;42.50
71084;DHT22;58741;52.672;13.548;2022-07-31T15:09:41;28.70;41.80
71084;DHT22;58741;52.672;13.548;2022-07-31T15:12:07;28.70;43.80
71084;DHT22;58741;52.672;13.548;2022-07-31T15:14:33;28.70;44.20
71084;DHT22;58741;52.672;13.548;2022-07-31T15:16:59;28.90;45.90
71084;DHT22;58741;52.672;13.548;2022-07-31T15:19:24;29.00;43.20
71084;DHT22;58741;52.672;13.548;2022-07-31T15:21:50;29.10;42.90
71084;DHT22;58741;52.672;13.548;2022-07-31T15:24:15;29.20;44.20
71084;DHT22;58741;52.672;13.548;2022-07-31T15:26:41;29.30;42.90